createdAt,value
2022-08-26T00:00:59.145Z,100118.78
2022-08-26T00:03:26.454Z,100118.09
2022-08-26T00:05:54.348Z,100121.94
2022-08-26T00:08:21.288Z,100113.03
2022-08-26T00:10:48.123Z,100112.19
2022-08-26T00:13:16.032Z,100106.81
2022-08-26T00:15:47.020Z,100111.87
2022-08-26T00:18:22.029Z,100110.03
2022-08-26T00:20:49.479Z,100113.03
2022-08-26T00:23:16.664Z,100105.84
2022-08-26T00:25:43.298Z,100111.37
2022-08-26T00:28:10.954Z,100112.84
2022-08-26T00:30:37.738Z,100110.16
2022-08-26T00:33:06.093Z,100112.50
2022-08-26T00:35:34.102Z,100110.41
2022-08-26T00:38:01.056Z,100108.19
2022-08-26T00:40:39.169Z,100112.56
2022-08-26T00:43:09.513Z,100101.84
2022-08-26T00:45:48.945Z,100103.50
2022-08-26T00:48:16.905Z,100106.38
2022-08-26T00:51:07.336Z,100102.16
2022-08-26T00:53:36.897Z,100103.47
2022-08-26T00:56:20.170Z,100100.78
2022-08-26T00:58:48.037Z,100101.81
2022-08-26T01:01:14.894Z,100110.16
2022-08-26T01:03:42.074Z,100099.91
2022-08-26T01:06:12.396Z,100106.59
2022-08-26T01:08:39.636Z,100103.38
2022-08-26T01:11:06.259Z,100098.16
2022-08-26T01:13:33.780Z,100107.22
2022-08-26T01:16:02.865Z,100098.97
2022-08-26T01:18:29.595Z,100099.81
2022-08-26T01:21:17.067Z,100102.50
2022-08-26T01:23:51.883Z,100099.13
2022-08-26T01:26:40.472Z,100098.09
2022-08-26T01:29:08.356Z,100100.44
2022-08-26T01:31:39.033Z,100097.56
2022-08-26T01:34:22.158Z,100095.03
2022-08-26T01:36:51.538Z,100096.78
2022-08-26T01:39:18.745Z,100101.37
2022-08-26T01:41:45.346Z,100093.97
2022-08-26T01:44:16.914Z,100092.13
2022-08-26T01:46:43.791Z,100098.31
2022-08-26T01:49:10.407Z,100094.66
2022-08-26T01:51:37.301Z,100091.28
2022-08-26T01:54:05.245Z,100093.28
2022-08-26T01:56:33.451Z,100095.78
2022-08-26T01:59:05.283Z,100095.34
2022-08-26T02:01:31.962Z,100098.03
2022-08-26T02:04:10.823Z,100093.09
2022-08-26T02:06:40.416Z,100095.44
2022-08-26T02:09:07.305Z,100098.41
2022-08-26T02:11:33.951Z,100093.22
2022-08-26T02:14:10.265Z,100092.34
2022-08-26T02:16:39.785Z,100096.53
2022-08-26T02:19:17.031Z,100101.19
2022-08-26T02:21:44.668Z,100106.00
2022-08-26T02:24:14.809Z,100103.00
2022-08-26T02:26:42.026Z,100097.97
2022-08-26T02:29:20.561Z,100102.94
2022-08-26T02:31:48.554Z,100102.09
2022-08-26T02:34:16.812Z,100098.88
2022-08-26T02:36:43.397Z,100103.78
2022-08-26T02:39:10.088Z,100100.56
2022-08-26T02:41:40.307Z,100098.34
2022-08-26T02:44:11.956Z,100099.47
2022-08-26T02:46:39.234Z,100093.28
2022-08-26T02:49:06.690Z,100092.94
2022-08-26T02:51:33.341Z,100096.47
2022-08-26T02:53:59.991Z,100096.19
2022-08-26T02:56:28.125Z,100096.19
2022-08-26T02:58:54.966Z,100102.84
2022-08-26T03:01:27.277Z,100104.13
2022-08-26T03:03:54.285Z,100099.75
2022-08-26T03:06:21.000Z,100097.91
2022-08-26T03:08:47.622Z,100097.75
2022-08-26T03:11:14.274Z,100101.59
2022-08-26T03:13:42.066Z,100103.25
2022-08-26T03:16:08.841Z,100102.28
2022-08-26T03:18:36.031Z,100099.06
2022-08-26T03:21:10.811Z,100094.31
2022-08-26T03:23:38.480Z,100089.00
2022-08-26T03:26:06.035Z,100088.03
2022-08-26T03:28:33.318Z,100088.47
2022-08-26T03:31:01.454Z,100086.78
2022-08-26T03:33:28.161Z,100090.31
2022-08-26T03:35:55.898Z,100089.06
2022-08-26T03:38:25.137Z,100086.56
2022-08-26T03:40:52.431Z,100086.69
2022-08-26T03:43:19.708Z,100086.00
2022-08-26T03:45:46.537Z,100085.00
2022-08-26T03:48:13.470Z,100083.47
2022-08-26T03:50:40.213Z,100081.81
2022-08-26T03:53:07.500Z,100080.41
2022-08-26T03:55:39.939Z,100086.75
2022-08-26T03:58:06.572Z,100078.84
2022-08-26T04:00:33.167Z,100083.38
2022-08-26T04:03:01.262Z,100086.06
2022-08-26T04:05:28.374Z,100088.16
2022-08-26T04:07:55.127Z,100093.53
2022-08-26T04:10:29.229Z,100083.38
2022-08-26T04:12:59.024Z,100083.50
2022-08-26T04:15:25.805Z,100084.91
2022-08-26T04:17:52.507Z,100085.91
2022-08-26T04:20:19.545Z,100083.94
2022-08-26T04:22:46.186Z,100081.81
2022-08-26T04:25:12.930Z,100084.31
2022-08-26T04:27:39.517Z,100084.16
2022-08-26T04:30:07.931Z,100082.72
2022-08-26T04:32:35.647Z,100081.44
2022-08-26T04:35:03.309Z,100087.16
2022-08-26T04:37:31.312Z,100081.53
2022-08-26T04:39:59.275Z,100078.72
2022-08-26T04:42:26.497Z,100082.78
2022-08-26T04:44:53.123Z,100085.13
2022-08-26T04:47:19.796Z,100078.78
2022-08-26T04:49:46.385Z,100086.38
2022-08-26T04:52:13.055Z,100080.72
2022-08-26T04:54:42.010Z,100081.69
2022-08-26T04:57:08.756Z,100081.09
2022-08-26T04:59:39.154Z,100084.72
2022-08-26T05:02:06.917Z,100090.16
2022-08-26T05:04:33.675Z,100085.34
2022-08-26T05:07:02.687Z,100087.94
2022-08-26T05:09:29.780Z,100083.63
2022-08-26T05:11:57.170Z,100084.37
2022-08-26T05:14:23.795Z,100087.44
2022-08-26T05:16:50.637Z,100086.84
2022-08-26T05:19:19.248Z,100077.47
2022-08-26T05:21:46.398Z,100084.22
2022-08-26T05:24:13.995Z,100085.91
2022-08-26T05:26:40.673Z,100090.00
2022-08-26T05:29:07.805Z,100089.56
2022-08-26T05:31:34.762Z,100086.75
2022-08-26T05:34:03.885Z,100086.66
2022-08-26T05:36:33.200Z,100090.25
2022-08-26T05:39:00.677Z,100088.66
2022-08-26T05:41:34.339Z,100091.06
2022-08-26T05:44:05.450Z,100089.47
2022-08-26T05:46:32.198Z,100096.03
2022-08-26T05:48:58.892Z,100095.03
2022-08-26T05:51:26.193Z,100098.00
2022-08-26T05:53:54.918Z,100099.00
2022-08-26T05:56:24.798Z,100094.66
2022-08-26T05:58:51.927Z,100098.03
2022-08-26T06:01:20.424Z,100100.38
2022-08-26T06:03:50.057Z,100097.63
2022-08-26T06:06:28.145Z,100096.62
2022-08-26T06:08:55.726Z,100097.81
2022-08-26T06:11:26.132Z,100100.19
2022-08-26T06:13:53.726Z,100100.81
2022-08-26T06:16:22.294Z,100105.28
2022-08-26T06:18:49.068Z,100105.69
2022-08-26T06:21:35.558Z,100102.94
2022-08-26T06:24:27.240Z,100104.94
2022-08-26T06:27:04.988Z,100108.16
2022-08-26T06:29:33.772Z,100106.59
2022-08-26T06:32:03.563Z,100100.63
2022-08-26T06:34:30.731Z,100100.03
2022-08-26T06:36:58.699Z,100106.41
2022-08-26T06:39:25.510Z,100107.72
2022-08-26T06:41:53.837Z,100103.84
2022-08-26T06:44:21.801Z,100104.75
2022-08-26T06:46:50.214Z,100104.81
2022-08-26T06:49:17.761Z,100095.56
2022-08-26T06:51:44.470Z,100096.88
2022-08-26T06:54:11.326Z,100098.75
2022-08-26T06:56:40.931Z,100102.50
2022-08-26T06:59:10.118Z,100098.09
2022-08-26T07:01:44.784Z,100095.50
2022-08-26T07:04:21.778Z,100094.84
2022-08-26T07:06:52.875Z,100094.87
2022-08-26T07:09:20.804Z,100095.06
2022-08-26T07:11:48.232Z,100092.59
2022-08-26T07:14:16.841Z,100090.34
2022-08-26T07:16:47.392Z,100089.72
2022-08-26T07:19:14.159Z,100090.50
2022-08-26T07:21:42.249Z,100089.81
2022-08-26T07:24:12.347Z,100093.16
2022-08-26T07:26:43.049Z,100096.00
2022-08-26T07:29:11.571Z,100092.09
2022-08-26T07:31:39.585Z,100094.63
2022-08-26T07:34:09.378Z,100091.91
2022-08-26T07:36:36.408Z,100088.69
2022-08-26T07:39:03.255Z,100085.00
2022-08-26T07:43:56.492Z,100083.63
2022-08-26T07:46:27.473Z,100078.91
2022-08-26T07:48:57.317Z,100086.72
2022-08-26T07:51:25.017Z,100082.34
2022-08-26T07:53:52.481Z,100084.72
2022-08-26T07:56:19.956Z,100084.44
2022-08-26T07:58:51.613Z,100083.84
2022-08-26T08:01:23.630Z,100076.94
2022-08-26T08:03:51.737Z,100088.03
2022-08-26T08:06:22.528Z,100087.78
2022-08-26T08:08:54.493Z,100079.53
2022-08-26T08:11:21.580Z,100084.13
2022-08-26T08:13:48.507Z,100078.22
2022-08-26T08:16:15.587Z,100075.78
2022-08-26T08:18:42.226Z,100063.22
2022-08-26T08:21:21.898Z,100068.94
2022-08-26T08:23:50.917Z,100065.00
2022-08-26T08:26:17.653Z,100055.22
2022-08-26T08:28:46.262Z,100060.09
2022-08-26T08:31:54.532Z,100063.22
2022-08-26T08:34:12.400Z,100064.63
2022-08-26T08:36:39.068Z,100059.56
2022-08-26T08:39:06.354Z,100057.59
2022-08-26T08:41:48.549Z,100048.31
2022-08-26T08:44:20.387Z,100051.84
2022-08-26T08:46:55.884Z,100055.22
2022-08-26T08:49:25.911Z,100049.63
2022-08-26T08:52:15.115Z,100046.16
2022-08-26T08:54:43.249Z,100046.34
2022-08-26T08:57:37.649Z,100045.50
2022-08-26T09:00:17.731Z,100046.81
2022-08-26T09:02:50.065Z,100042.47
2022-08-26T09:05:28.541Z,100040.72
2022-08-26T09:08:20.276Z,100043.06
2022-08-26T09:10:51.670Z,100035.47
2022-08-26T09:13:24.939Z,100036.87
2022-08-26T09:15:56.459Z,100029.12
2022-08-26T09:18:41.852Z,100027.09
2022-08-26T09:21:14.102Z,100027.88
2022-08-26T09:23:42.956Z,100020.13
2022-08-26T09:26:18.851Z,100017.66
2022-08-26T09:29:08.485Z,100022.69
2022-08-26T09:31:36.471Z,100023.78
2022-08-26T09:34:17.894Z,100019.66
2022-08-26T09:36:49.315Z,100007.06
2022-08-26T09:39:27.869Z,100013.63
2022-08-26T09:42:14.335Z,100011.31
2022-08-26T09:45:10.561Z,100010.06
2022-08-26T09:47:47.196Z,100007.38
2022-08-26T09:50:59.373Z,100003.81
2022-08-26T09:53:30.506Z,100007.94
2022-08-26T09:56:25.315Z,100000.78
2022-08-26T09:58:52.083Z,100007.66
2022-08-26T10:01:24.329Z,100001.56
2022-08-26T10:03:51.466Z,100002.69
2022-08-26T10:06:18.071Z,99999.09
2022-08-26T10:08:52.587Z,99998.56
2022-08-26T10:11:39.781Z,99998.84
2022-08-26T10:14:11.256Z,99996.88
2022-08-26T10:16:50.732Z,99996.09
2022-08-26T10:19:20.945Z,99988.94
2022-08-26T10:21:56.685Z,99992.22
2022-08-26T10:24:30.508Z,99997.19
2022-08-26T10:27:07.890Z,99988.09
2022-08-26T10:29:46.168Z,99996.34
2022-08-26T10:32:41.269Z,99988.66
2022-08-26T10:35:10.990Z,99980.13
2022-08-26T10:37:39.866Z,99975.97
2022-08-26T10:40:21.203Z,99974.34
2022-08-26T10:42:57.808Z,99969.94
2022-08-26T10:45:29.634Z,99958.66
2022-08-26T10:48:07.295Z,99965.47
2022-08-26T10:50:39.340Z,99962.22
2022-08-26T10:53:13.187Z,99958.62
2022-08-26T10:55:49.946Z,99957.53
2022-08-26T10:58:37.984Z,99952.88
2022-08-26T11:01:51.092Z,99949.53
2022-08-26T11:04:22.555Z,99951.44
2022-08-26T11:06:49.617Z,99946.75
2022-08-26T11:09:45.871Z,99952.81
2022-08-26T11:12:37.558Z,99942.19
2022-08-26T11:15:08.839Z,99943.56
2022-08-26T11:17:44.710Z,99937.69
2022-08-26T11:20:24.343Z,99940.50
2022-08-26T11:22:51.128Z,99938.63
2022-08-26T11:25:18.728Z,99935.09
2022-08-26T11:27:48.115Z,99936.91
2022-08-26T11:30:15.867Z,99933.31
2022-08-26T11:32:49.578Z,99932.97
2022-08-26T11:35:19.608Z,99924.28
2022-08-26T11:37:59.681Z,99920.31
2022-08-26T11:40:28.570Z,99918.50
2022-08-26T11:43:18.769Z,99922.44
2022-08-26T11:46:21.855Z,99914.69
2022-08-26T11:48:48.941Z,99913.00
2022-08-26T11:51:23.250Z,99910.81
2022-08-26T11:53:51.071Z,99905.91
2022-08-26T11:56:24.578Z,99902.47
2022-08-26T11:58:53.523Z,99904.63
2022-08-26T12:01:35.644Z,99900.75
2022-08-26T12:04:12.046Z,99894.00
2022-08-26T12:06:45.192Z,99896.56
2022-08-26T12:09:20.580Z,99889.44
2022-08-26T12:11:47.224Z,99892.50
2022-08-26T12:14:31.943Z,99886.97
2022-08-26T12:17:26.199Z,99879.34
2022-08-26T12:19:52.784Z,99879.16
2022-08-26T12:22:48.453Z,99878.09
2022-08-26T12:25:15.329Z,99875.75
2022-08-26T12:27:44.067Z,99870.53
2022-08-26T12:30:20.098Z,99867.16
2022-08-26T12:32:58.756Z,99859.72
2022-08-26T12:35:25.961Z,99858.09
2022-08-26T12:37:53.337Z,99856.59
2022-08-26T12:40:30.526Z,99861.44
2022-08-26T12:43:00.331Z,99860.59
2022-08-26T12:45:32.086Z,99851.63
2022-08-26T12:48:00.371Z,99852.84
2022-08-26T12:50:29.588Z,99847.59
2022-08-26T12:53:01.570Z,99849.53
2022-08-26T12:55:38.304Z,99848.59
2022-08-26T12:58:20.875Z,99837.34
2022-08-26T13:01:10.628Z,99838.19
2022-08-26T13:03:43.570Z,99843.22
2022-08-26T13:06:15.822Z,99839.38
2022-08-26T13:08:45.013Z,99832.38
2022-08-26T13:11:18.610Z,99834.09
2022-08-26T13:13:45.768Z,99832.38
2022-08-26T13:16:14.199Z,99820.22
2022-08-26T13:18:40.831Z,99814.31
2022-08-26T13:21:16.880Z,99809.59
2022-08-26T13:23:43.494Z,99808.97
2022-08-26T13:26:10.190Z,99810.41
2022-08-26T13:28:36.823Z,99807.03
2022-08-26T13:31:04.840Z,99808.91
2022-08-26T13:33:32.629Z,99803.09
2022-08-26T13:35:59.564Z,99800.44
2022-08-26T13:38:33.718Z,99804.47
2022-08-26T13:41:02.489Z,99799.97
2022-08-26T13:43:30.424Z,99796.06
2022-08-26T13:45:57.026Z,99788.88
2022-08-26T13:48:23.763Z,99782.91
2022-08-26T13:50:50.727Z,99782.06
2022-08-26T13:53:17.667Z,99779.59
2022-08-26T13:55:44.393Z,99782.41
2022-08-26T13:58:11.626Z,99784.31
2022-08-26T14:00:39.597Z,99783.34
2022-08-26T14:03:11.291Z,99777.56
2022-08-26T14:05:39.827Z,99777.31
2022-08-26T14:08:06.464Z,99771.25
2022-08-26T14:10:33.229Z,99770.34
2022-08-26T14:12:59.942Z,99765.37
2022-08-26T14:15:26.626Z,99770.72
2022-08-26T14:17:55.544Z,99771.78
2022-08-26T14:20:28.019Z,99778.88
2022-08-26T14:23:12.952Z,99783.12
2022-08-26T14:25:40.473Z,99783.09
2022-08-26T14:28:07.075Z,99786.25
2022-08-26T14:30:33.797Z,99786.38
2022-08-26T14:33:00.431Z,99786.13
2022-08-26T14:35:28.612Z,99787.75
2022-08-26T14:37:55.237Z,99798.81
2022-08-26T14:40:22.466Z,99792.00
2022-08-26T14:42:52.766Z,99790.69
2022-08-26T14:45:23.243Z,99800.16
2022-08-26T14:47:50.488Z,99787.00
2022-08-26T14:50:19.303Z,99796.00
2022-08-26T14:53:04.544Z,99795.25
2022-08-26T14:55:32.727Z,99793.53
2022-08-26T14:57:59.347Z,99787.53
2022-08-26T15:00:26.112Z,99778.59
2022-08-26T15:02:52.875Z,99779.41
2022-08-26T15:05:19.699Z,99773.97
2022-08-26T15:07:46.679Z,99771.50
2022-08-26T15:10:14.438Z,99778.81
2022-08-26T15:12:41.458Z,99761.44
2022-08-26T15:15:09.120Z,99767.56
2022-08-26T15:17:38.813Z,99768.50
2022-08-26T15:20:08.317Z,99769.31
2022-08-26T15:22:35.328Z,99768.00
2022-08-26T15:25:01.976Z,99762.66
2022-08-26T15:27:28.594Z,99757.06
2022-08-26T15:29:55.194Z,99761.25
2022-08-26T15:32:21.787Z,99757.06
2022-08-26T15:34:49.969Z,99756.84
2022-08-26T15:37:16.832Z,99755.00
2022-08-26T15:39:44.192Z,99757.66
2022-08-26T15:42:11.665Z,99752.53
2022-08-26T15:44:42.924Z,99761.81
2022-08-26T15:47:09.580Z,99761.38
2022-08-26T15:49:36.249Z,99750.41
2022-08-26T15:52:05.308Z,99747.47
2022-08-26T15:54:35.380Z,99749.69
2022-08-26T15:57:02.613Z,99744.50
2022-08-26T15:59:31.610Z,99746.03
2022-08-26T16:01:59.245Z,99739.38
2022-08-26T16:04:26.334Z,99739.41
2022-08-26T16:06:53.108Z,99744.50
2022-08-26T16:09:24.433Z,99730.72
2022-08-26T16:11:51.253Z,99730.12
2022-08-26T16:14:17.960Z,99732.09
2022-08-26T16:16:44.554Z,99735.72
2022-08-26T16:19:11.694Z,99734.66
2022-08-26T16:21:38.640Z,99737.00
2022-08-26T16:24:05.574Z,99731.41
2022-08-26T16:26:34.499Z,99725.81
2022-08-26T16:29:01.509Z,99735.22
2022-08-26T16:31:28.170Z,99731.91
2022-08-26T16:33:54.860Z,99736.13
2022-08-26T16:36:21.489Z,99745.75
2022-08-26T16:38:53.468Z,99742.66
2022-08-26T16:41:20.139Z,99743.97
2022-08-26T16:43:46.769Z,99736.25
2022-08-26T16:46:14.228Z,99751.72
2022-08-26T16:48:40.960Z,99751.56
2022-08-26T16:51:13.552Z,99746.78
2022-08-26T16:53:40.164Z,99747.41
2022-08-26T16:56:06.979Z,99743.72
2022-08-26T16:58:34.128Z,99754.59
2022-08-26T17:01:01.251Z,99753.81
2022-08-26T17:03:27.910Z,99745.47
2022-08-26T17:05:54.509Z,99746.12
2022-08-26T17:08:28.798Z,99748.44
2022-08-26T17:10:55.897Z,99747.22
2022-08-26T17:13:34.594Z,99744.53
2022-08-26T17:16:02.467Z,99750.59
2022-08-26T17:18:31.085Z,99745.84
2022-08-26T17:21:01.276Z,99749.00
2022-08-26T17:23:27.889Z,99741.72
2022-08-26T17:25:54.487Z,99745.84
2022-08-26T17:28:21.121Z,99743.38
2022-08-26T17:30:47.778Z,99754.22
2022-08-26T17:33:14.424Z,99749.66
2022-08-26T17:35:43.853Z,99754.22
2022-08-26T17:38:10.637Z,99748.22
2022-08-26T17:40:37.419Z,99760.06
2022-08-26T17:43:04.262Z,99750.91
2022-08-26T17:45:30.907Z,99753.41
2022-08-26T17:47:57.513Z,99747.16
2022-08-26T17:50:24.144Z,99750.69
2022-08-26T17:52:50.904Z,99741.53
2022-08-26T17:55:17.882Z,99742.97
2022-08-26T17:57:53.195Z,99746.53
2022-08-26T18:00:21.712Z,99754.41
2022-08-26T18:02:48.324Z,99758.34
2022-08-26T18:05:15.617Z,99753.94
2022-08-26T18:07:44.139Z,99755.63
2022-08-26T18:10:13.327Z,99761.84
2022-08-26T18:12:40.960Z,99766.00
2022-08-26T18:15:08.014Z,99767.44
2022-08-26T18:17:34.662Z,99764.91
2022-08-26T18:20:01.338Z,99760.53
2022-08-26T18:22:28.068Z,99764.66
2022-08-26T18:24:58.965Z,99765.84
2022-08-26T18:27:25.924Z,99759.59
2022-08-26T18:29:52.583Z,99767.91
2022-08-26T18:32:19.194Z,99757.50
2022-08-26T18:34:45.804Z,99758.09
2022-08-26T18:37:14.320Z,99768.28
2022-08-26T18:39:41.749Z,99763.47
2022-08-26T18:42:08.683Z,99766.16
2022-08-26T18:44:35.341Z,99763.00
2022-08-26T18:47:01.952Z,99766.94
2022-08-26T18:49:28.848Z,99770.25
2022-08-26T18:51:55.572Z,99772.25
2022-08-26T18:54:22.405Z,99772.00
2022-08-26T18:56:49.043Z,99776.12
2022-08-26T18:59:15.675Z,99780.47
2022-08-26T19:01:42.584Z,99780.41
2022-08-26T19:04:14.053Z,99776.44
2022-08-26T19:06:42.615Z,99779.75
2022-08-26T19:09:10.167Z,99782.44
2022-08-26T19:11:42.847Z,99788.63
2022-08-26T19:14:13.091Z,99783.78
2022-08-26T19:16:40.046Z,99792.66
2022-08-26T19:19:06.729Z,99782.66
2022-08-26T19:21:34.048Z,99781.56
2022-08-26T19:24:02.580Z,99793.78
2022-08-26T19:26:29.404Z,99790.63
2022-08-26T19:28:56.233Z,99788.50
2022-08-26T19:31:22.867Z,99794.28
2022-08-26T19:33:49.665Z,99788.06
2022-08-26T19:36:18.755Z,99783.66
2022-08-26T19:38:45.809Z,99787.59
2022-08-26T19:41:18.797Z,99785.28
2022-08-26T19:43:46.275Z,99800.81
2022-08-26T19:46:19.579Z,99787.09
2022-08-26T19:48:46.576Z,99796.19
2022-08-26T19:51:20.647Z,99799.28
2022-08-26T19:53:47.929Z,99806.75
2022-08-26T19:56:14.686Z,99801.06
2022-08-26T19:58:41.323Z,99810.37
2022-08-26T20:01:08.266Z,99807.69
2022-08-26T20:03:35.061Z,99814.66
2022-08-26T20:06:05.618Z,99816.53
2022-08-26T20:08:32.892Z,99812.53
2022-08-26T20:11:04.931Z,99812.44
2022-08-26T20:13:32.196Z,99821.94
2022-08-26T20:15:58.839Z,99815.63
2022-08-26T20:18:44.055Z,99821.41
2022-08-26T20:21:29.535Z,99826.16
2022-08-26T20:24:09.231Z,99828.56
2022-08-26T20:26:36.713Z,99826.81
2022-08-26T20:29:03.918Z,99827.38
2022-08-26T20:31:31.195Z,99827.94
2022-08-26T20:33:58.062Z,99823.75
2022-08-26T20:36:26.760Z,99835.53
2022-08-26T20:38:53.596Z,99834.22
2022-08-26T20:41:20.198Z,99832.56
2022-08-26T20:43:47.128Z,99833.78
2022-08-26T20:46:18.804Z,99839.53
2022-08-26T20:48:47.783Z,99839.03
2022-08-26T20:51:14.839Z,99840.25
2022-08-26T20:53:41.623Z,99841.00
2022-08-26T20:56:09.069Z,99841.37
2022-08-26T20:58:35.855Z,99845.09
2022-08-26T21:01:06.902Z,99850.84
2022-08-26T21:03:34.424Z,99845.34
2022-08-26T21:06:01.099Z,99849.41
2022-08-26T21:08:27.695Z,99858.53
2022-08-26T21:10:54.362Z,99861.56
2022-08-26T21:13:24.097Z,99862.78
2022-08-26T21:15:50.694Z,99864.66
2022-08-26T21:18:17.350Z,99864.34
2022-08-26T21:20:44.527Z,99860.16
2022-08-26T21:23:11.209Z,99868.56
2022-08-26T21:25:37.786Z,99862.53
2022-08-26T21:28:04.494Z,99861.88
2022-08-26T21:30:31.105Z,99862.06
2022-08-26T21:32:57.694Z,99864.75
2022-08-26T21:35:24.352Z,99859.56
2022-08-26T21:37:50.944Z,99868.84
2022-08-26T21:40:17.984Z,99867.31
2022-08-26T21:42:44.652Z,99865.66
2022-08-26T21:45:11.524Z,99863.31
2022-08-26T21:47:38.337Z,99862.00
2022-08-26T21:50:05.443Z,99861.16
2022-08-26T21:52:32.012Z,99855.97
2022-08-26T21:54:59.781Z,99871.44
2022-08-26T21:57:27.462Z,99870.78
2022-08-26T21:59:54.524Z,99863.81
2022-08-26T22:02:21.323Z,99862.66
2022-08-26T22:04:48.966Z,99856.81
2022-08-26T22:07:17.416Z,99854.16
2022-08-26T22:09:44.490Z,99863.41
2022-08-26T22:12:11.447Z,99860.94
2022-08-26T22:14:39.611Z,99862.63
2022-08-26T22:17:06.249Z,99872.41
2022-08-26T22:19:34.066Z,99861.88
2022-08-26T22:22:08.156Z,99864.41
2022-08-26T22:24:34.789Z,99859.59
2022-08-26T22:27:01.373Z,99858.75
2022-08-26T22:29:27.966Z,99861.97
2022-08-26T22:31:54.682Z,99860.81
2022-08-26T22:34:23.138Z,99855.97
2022-08-26T22:36:49.982Z,99857.34
2022-08-26T22:39:18.916Z,99851.44
2022-08-26T22:41:46.208Z,99849.94
2022-08-26T22:44:12.862Z,99852.12
2022-08-26T22:46:39.701Z,99850.13
2022-08-26T22:49:06.488Z,99845.91
2022-08-26T22:51:33.332Z,99847.78
2022-08-26T22:54:00.640Z,99845.91
2022-08-26T22:56:27.297Z,99846.09
2022-08-26T22:58:53.932Z,99842.41
2022-08-26T23:01:20.584Z,99837.38
2022-08-26T23:03:47.295Z,99840.41
2022-08-26T23:06:14.093Z,99833.53
2022-08-26T23:08:41.856Z,99841.44
2022-08-26T23:11:09.480Z,99834.88
2022-08-26T23:13:36.448Z,99845.97
2022-08-26T23:16:07.511Z,99847.16
2022-08-26T23:18:34.192Z,99837.75
2022-08-26T23:21:00.872Z,99840.63
2022-08-26T23:23:27.677Z,99845.53
2022-08-26T23:25:55.087Z,99838.47
2022-08-26T23:28:22.119Z,99832.59
2022-08-26T23:30:48.768Z,99844.31
2022-08-26T23:33:15.427Z,99839.28
2022-08-26T23:35:42.149Z,99831.75
2022-08-26T23:38:09.907Z,99835.94
2022-08-26T23:40:38.642Z,99822.38
2022-08-26T23:43:06.997Z,99820.88
2022-08-26T23:45:33.743Z,99820.38
2022-08-26T23:48:00.446Z,99823.22
2022-08-26T23:50:48.536Z,99816.19
2022-08-26T23:53:19.570Z,99821.56
2022-08-26T23:55:48.227Z,99814.16
2022-08-26T23:58:16.276Z,99814.84
